Time;durP1;ratioP1;P1;durP2;ratioP2;P2;SDS_P1;SDS_P2;PMS_P1;PMS_P2;Temp;Humidity;BMP_temperature;BMP_pressure;BME280_temperature;BME280_humidity;BME280_pressure;Samples;Min_cycle;Max_cycle;Signal;HPM_P1;HPM_P2
2024/02/16 00:02:08;;;;;;;6.57;4.63;;;11.20;99.90;;;;;;5099907;28;20137;-94
2024/02/16 00:04:34;;;;;;;7.10;4.20;;;11.10;99.90;;;;;;5098185;28;20035;-94
2024/02/16 00:07:00;;;;;;;6.55;4.57;;;11.10;99.90;;;;;;5097864;28;20026;-94
2024/02/16 00:09:27;;;;;;;5.50;3.92;;;11.10;99.90;;;;;;5099733;28;20383;-95
2024/02/16 00:11:52;;;;;;;5.53;3.95;;;11.10;99.90;;;;;;5099595;28;20110;-91
2024/02/16 00:14:18;;;;;;;7.82;3.67;;;11.10;99.90;;;;;;5100102;28;20054;-92
2024/02/16 00:16:44;;;;;;;5.10;3.85;;;11.10;99.90;;;;;;5098346;28;20060;-91
2024/02/16 00:19:10;;;;;;;4.82;3.35;;;11.10;99.90;;;;;;5097832;28;20028;-93
2024/02/16 00:21:37;;;;;;;11.18;4.53;;;11.10;99.90;;;;;;5099081;28;20053;-92
2024/02/16 00:24:02;;;;;;;5.47;3.72;;;11.10;99.90;;;;;;5100006;28;20122;-93
2024/02/16 00:26:28;;;;;;;5.97;3.50;;;11.10;99.90;;;;;;5100229;28;20491;-91
2024/02/16 00:28:54;;;;;;;6.78;3.45;;;11.10;99.90;;;;;;5099903;28;20106;-93
2024/02/16 00:31:20;;;;;;;6.22;3.58;;;11.10;99.90;;;;;;5098983;28;20028;-93
2024/02/16 00:33:45;;;;;;;5.13;3.50;;;11.10;99.90;;;;;;5094125;28;20028;-93
2024/02/16 00:36:11;;;;;;;4.80;3.00;;;11.10;99.90;;;;;;5109675;28;20079;-92
2024/02/16 00:38:37;;;;;;;5.35;3.45;;;11.10;99.90;;;;;;5118177;28;20074;-91
2024/02/16 00:41:04;;;;;;;4.85;3.65;;;11.10;99.90;;;;;;5103154;28;20036;-93
2024/02/16 00:43:30;;;;;;;7.53;3.45;;;11.10;99.90;;;;;;5086975;28;20062;-92
2024/02/16 00:45:55;;;;;;;6.30;3.08;;;11.10;99.90;;;;;;5107590;28;20024;-93
2024/02/16 00:48:21;;;;;;;4.32;3.10;;;11.10;99.90;;;;;;5103726;28;20028;-93
2024/02/16 00:50:47;;;;;;;6.20;3.30;;;11.10;99.90;;;;;;5100042;28;20043;-94
2024/02/16 00:53:13;;;;;;;5.88;3.88;;;11.20;99.90;;;;;;5096795;28;20123;-93
2024/02/16 00:55:41;;;;;;;5.15;3.63;;;11.20;99.90;;;;;;5096040;28;20054;-93
2024/02/16 00:58:07;;;;;;;5.78;3.80;;;11.20;99.90;;;;;;5097631;28;20049;-93
2024/02/16 01:00:33;;;;;;;3.83;3.05;;;11.20;99.90;;;;;;5098623;28;20067;-94
2024/02/16 01:02:58;;;;;;;5.07;3.60;;;11.20;99.90;;;;;;5096343;28;20020;-94
2024/02/16 01:05:24;;;;;;;4.88;3.53;;;11.20;99.90;;;;;;5099626;28;20111;-93
2024/02/16 01:07:50;;;;;;;4.93;3.85;;;11.20;99.90;;;;;;5102913;28;20436;-92
2024/02/16 01:10:16;;;;;;;5.43;3.97;;;11.20;99.90;;;;;;5096157;28;20496;-94
2024/02/16 01:12:41;;;;;;;5.40;3.72;;;11.20;99.90;;;;;;5078725;28;20563;-93
2024/02/16 01:15:07;;;;;;;6.07;3.30;;;11.20;99.90;;;;;;5080361;28;20031;-94
2024/02/16 01:17:34;;;;;;;5.00;4.50;;;11.10;99.90;;;;;;5098101;28;20369;-92
2024/02/16 01:19:59;;;;;;;6.72;4.25;;;11.20;99.90;;;;;;5099696;28;20088;-92
2024/02/16 01:22:25;;;;;;;6.15;5.05;;;11.20;99.90;;;;;;5100769;28;20024;-94
2024/02/16 01:24:51;;;;;;;7.75;5.25;;;11.10;99.90;;;;;;5109763;28;20028;-93
2024/02/16 01:27:16;;;;;;;7.05;5.20;;;11.10;99.90;;;;;;5115680;28;20027;-93
2024/02/16 01:29:42;;;;;;;5.47;4.88;;;11.10;99.90;;;;;;5099425;28;20052;-92
2024/02/16 01:32:09;;;;;;;7.93;5.47;;;11.10;99.90;;;;;;5092034;28;20025;-93
2024/02/16 01:34:35;;;;;;;9.35;6.45;;;11.10;99.90;;;;;;5077379;28;20024;-93
2024/02/16 01:37:01;;;;;;;9.02;7.63;;;11.10;99.90;;;;;;5082380;28;20028;-93
2024/02/16 01:39:26;;;;;;;8.52;6.30;;;11.10;99.90;;;;;;5085879;28;20032;-94
2024/02/16 01:41:52;;;;;;;11.60;7.30;;;11.10;99.90;;;;;;5076257;28;20048;-94
2024/02/16 01:44:18;;;;;;;13.73;7.35;;;11.10;99.90;;;;;;5076875;28;20109;-93
2024/02/16 01:46:44;;;;;;;9.18;6.60;;;11.10;99.90;;;;;;5080483;28;20027;-93
2024/02/16 01:49:11;;;;;;;6.78;5.75;;;11.10;99.90;;;;;;5096920;28;20027;-93
2024/02/16 01:51:37;;;;;;;5.57;3.95;;;11.10;99.90;;;;;;5097216;28;20095;-93
2024/02/16 01:54:03;;;;;;;8.77;6.80;;;11.00;99.90;;;;;;5096840;28;20024;-93
2024/02/16 01:56:29;;;;;;;6.18;4.68;;;11.10;99.90;;;;;;5111646;28;20035;-94
2024/02/16 01:58:55;;;;;;;8.93;6.03;;;11.10;99.90;;;;;;5096227;28;20023;-92
2024/02/16 02:01:20;;;;;;;9.23;6.55;;;11.00;99.90;;;;;;5114286;28;20045;-93
2024/02/16 02:03:46;;;;;;;10.52;8.40;;;11.00;99.90;;;;;;5097180;28;20016;-92
2024/02/16 02:06:12;;;;;;;13.18;8.20;;;11.00;99.90;;;;;;5097057;28;20396;-92
2024/02/16 02:08:38;;;;;;;10.88;8.73;;;11.00;99.90;;;;;;5110128;28;20073;-93
2024/02/16 02:11:05;;;;;;;11.27;8.65;;;11.00;99.90;;;;;;5095675;28;20024;-92
2024/02/16 02:13:31;;;;;;;12.35;9.73;;;10.90;99.90;;;;;;5079832;28;20099;-92
2024/02/16 02:15:59;;;;;;;13.43;9.75;;;10.90;99.90;;;;;;5082654;28;20064;-91
2024/02/16 02:18:25;;;;;;;10.30;8.18;;;10.90;99.90;;;;;;5095457;28;20023;-92
2024/02/16 02:20:50;;;;;;;11.50;8.48;;;10.90;99.90;;;;;;5115534;28;20092;-93
2024/02/16 02:23:16;;;;;;;11.85;8.63;;;10.90;99.90;;;;;;5097506;28;20035;-94
2024/02/16 02:25:42;;;;;;;10.93;8.73;;;10.90;99.90;;;;;;5097481;28;20536;-94
2024/02/16 02:28:08;;;;;;;13.27;9.13;;;10.90;99.90;;;;;;5089518;28;20035;-93
2024/02/16 02:30:34;;;;;;;8.30;6.80;;;10.80;99.90;;;;;;5089074;28;20027;-94
2024/02/16 02:32:59;;;;;;;11.18;8.88;;;10.90;99.90;;;;;;5084837;28;20485;-93
2024/02/16 02:35:25;;;;;;;9.13;6.88;;;10.90;99.90;;;;;;5109309;28;20031;-93
2024/02/16 02:37:51;;;;;;;11.15;7.63;;;10.90;99.90;;;;;;5097573;28;20051;-94
2024/02/16 02:40:17;;;;;;;8.98;6.10;;;10.80;99.90;;;;;;5097849;28;20068;-94
2024/02/16 02:42:43;;;;;;;10.27;8.00;;;10.80;99.90;;;;;;5094110;28;20178;-93
2024/02/16 02:45:09;;;;;;;12.73;8.38;;;10.80;99.90;;;;;;5097097;28;20028;-94
2024/02/16 02:47:35;;;;;;;11.05;8.30;;;10.80;99.90;;;;;;5096166;28;20043;-92
2024/02/16 02:50:01;;;;;;;10.77;8.15;;;10.80;99.90;;;;;;5102202;28;20020;-93
2024/02/16 02:52:27;;;;;;;12.02;8.20;;;10.80;99.90;;;;;;5109218;28;20029;-93
2024/02/16 02:54:52;;;;;;;8.50;7.00;;;10.80;99.90;;;;;;5107161;28;20008;-92
2024/02/16 02:57:18;;;;;;;10.18;8.15;;;10.80;99.90;;;;;;5115663;28;20031;-93
2024/02/16 02:59:45;;;;;;;10.15;7.65;;;10.80;99.90;;;;;;5097846;28;20024;-92
2024/02/16 03:02:11;;;;;;;10.20;7.65;;;10.80;99.90;;;;;;5089842;28;20025;-94
2024/02/16 03:04:36;;;;;;;7.55;6.30;;;10.80;99.90;;;;;;5096659;28;20143;-93
2024/02/16 03:07:02;;;;;;;11.10;8.05;;;10.80;99.90;;;;;;5096778;28;20032;-92
2024/02/16 03:09:28;;;;;;;8.60;6.50;;;10.80;99.90;;;;;;5096671;28;20028;-94
2024/02/16 03:11:54;;;;;;;10.85;8.07;;;10.80;99.90;;;;;;5094619;28;20049;-92
2024/02/16 03:14:19;;;;;;;11.50;7.70;;;10.80;99.90;;;;;;5095635;28;20049;-93
2024/02/16 03:16:45;;;;;;;13.05;7.90;;;10.80;99.90;;;;;;5097404;28;20039;-93
2024/02/16 03:19:11;;;;;;;12.07;7.82;;;10.70;99.90;;;;;;5096054;28;20069;-93
2024/02/16 03:21:37;;;;;;;9.02;6.60;;;10.70;99.90;;;;;;5078877;28;20127;-94
2024/02/16 03:24:03;;;;;;;11.55;8.57;;;10.70;99.90;;;;;;5096503;28;20020;-92
2024/02/16 03:26:29;;;;;;;14.30;8.25;;;10.70;99.90;;;;;;5077246;28;20024;-93
2024/02/16 03:28:56;;;;;;;10.60;7.15;;;10.70;99.90;;;;;;5094523;28;20016;-94
2024/02/16 03:31:23;;;;;;;10.65;7.53;;;10.70;99.90;;;;;;5093695;28;20025;-93
2024/02/16 03:33:51;;;;;;;11.68;7.05;;;10.70;99.90;;;;;;5092349;28;20583;-94
2024/02/16 03:36:18;;;;;;;9.07;6.80;;;10.70;99.90;;;;;;5097071;28;20206;-94
2024/02/16 03:38:46;;;;;;;10.52;6.65;;;10.60;99.90;;;;;;5096342;28;20036;-93
2024/02/16 03:41:24;;;;;;;11.85;7.50;;;10.60;99.90;;;;;;5098315;28;20036;-93
2024/02/16 03:43:51;;;;;;;13.75;7.78;;;10.60;99.90;;;;;;5095540;28;20036;-93
2024/02/16 03:46:17;;;;;;;11.27;7.85;;;10.60;99.90;;;;;;5094988;28;20122;-93
2024/02/16 03:48:44;;;;;;;12.18;8.43;;;10.60;99.90;;;;;;5100125;28;20073;-92
2024/02/16 03:51:10;;;;;;;13.07;8.57;;;10.60;99.90;;;;;;5099927;28;20028;-95
2024/02/16 03:53:36;;;;;;;13.20;9.55;;;10.60;99.90;;;;;;5096064;28;20120;-94
2024/02/16 03:56:01;;;;;;;15.63;9.70;;;10.60;99.90;;;;;;5099751;28;20034;-93
2024/02/16 03:58:27;;;;;;;14.52;8.90;;;10.60;99.90;;;;;;5116100;28;20024;-95
2024/02/16 04:00:53;;;;;;;12.45;8.65;;;10.50;99.90;;;;;;5098935;28;20059;-94
2024/02/16 04:03:19;;;;;;;12.05;8.68;;;10.60;99.90;;;;;;5096859;28;20023;-93
2024/02/16 04:05:45;;;;;;;10.35;7.18;;;10.50;99.90;;;;;;5095801;28;20501;-93
2024/02/16 04:08:11;;;;;;;14.88;9.32;;;10.50;99.90;;;;;;5078871;28;20081;-93
2024/02/16 04:10:36;;;;;;;9.90;7.05;;;10.50;99.90;;;;;;5078309;28;20074;-92
2024/02/16 04:13:03;;;;;;;10.02;7.50;;;10.50;99.90;;;;;;5093517;28;20057;-94
2024/02/16 04:15:30;;;;;;;10.93;8.23;;;10.50;99.90;;;;;;5099909;28;20027;-92
2024/02/16 04:17:55;;;;;;;14.05;9.02;;;10.50;99.90;;;;;;5106996;28;20028;-93
2024/02/16 04:20:22;;;;;;;15.05;11.00;;;10.50;99.90;;;;;;5116188;28;20111;-93
2024/02/16 04:22:47;;;;;;;16.38;10.95;;;10.50;99.90;;;;;;5099513;28;20017;-92
2024/02/16 04:25:13;;;;;;;21.50;12.32;;;10.50;99.90;;;;;;5117670;28;20248;-93
2024/02/16 04:27:39;;;;;;;14.77;10.45;;;10.50;99.90;;;;;;5095363;28;20031;-93
2024/02/16 04:30:06;;;;;;;14.13;9.45;;;10.50;99.90;;;;;;5094889;28;20081;-93
2024/02/16 04:32:32;;;;;;;14.30;9.60;;;10.40;99.90;;;;;;5092407;28;20024;-93
2024/02/16 04:34:58;;;;;;;14.18;9.57;;;10.40;99.90;;;;;;5094970;28;20024;-93
2024/02/16 04:37:25;;;;;;;10.95;8.52;;;10.40;99.90;;;;;;5086258;28;20058;-93
2024/02/16 04:39:51;;;;;;;15.55;10.13;;;10.30;99.90;;;;;;5075969;28;20024;-93
2024/02/16 04:42:17;;;;;;;13.10;9.40;;;10.30;99.90;;;;;;5087090;28;20185;-93
2024/02/16 04:44:43;;;;;;;12.65;8.73;;;10.30;99.90;;;;;;5096229;28;20051;-93
2024/02/16 04:47:09;;;;;;;13.48;8.77;;;10.30;99.90;;;;;;5096247;28;20019;-93
2024/02/16 04:49:35;;;;;;;11.50;7.43;;;10.30;99.90;;;;;;5113187;28;20031;-94
2024/02/16 04:52:03;;;;;;;10.80;7.70;;;10.30;99.90;;;;;;5091785;28;20047;-93
2024/02/16 04:54:29;;;;;;;10.65;6.80;;;10.30;99.90;;;;;;5101523;28;20093;-94
2024/02/16 04:56:55;;;;;;;9.85;6.25;;;10.20;99.90;;;;;;5093625;28;20020;-94
2024/02/16 04:59:21;;;;;;;8.15;5.47;;;10.20;99.90;;;;;;5094051;28;20028;-93
2024/02/16 05:01:47;;;;;;;7.15;5.50;;;10.20;99.90;;;;;;5096142;28;20024;-94
2024/02/16 05:04:16;;;;;;;7.00;4.50;;;10.10;99.90;;;;;;5094481;28;20028;-93
2024/02/16 05:06:47;;;;;;;5.00;3.38;;;10.10;99.90;;;;;;5086286;28;20024;-92
2024/02/16 05:09:16;;;;;;;2.95;2.00;;;10.10;99.90;;;;;;5094119;28;20020;-93
2024/02/16 05:11:43;;;;;;;3.85;2.00;;;10.10;99.90;;;;;;5077003;28;20028;-93
2024/02/16 05:14:11;;;;;;;6.03;1.60;;;10.00;99.90;;;;;;5096063;28;20024;-93
2024/02/16 05:16:37;;;;;;;7.90;2.33;;;10.00;99.90;;;;;;5095458;28;20122;-92
2024/02/16 05:19:03;;;;;;;4.70;1.42;;;9.90;99.90;;;;;;5097304;28;20100;-93
2024/02/16 05:21:29;;;;;;;2.92;1.20;;;9.90;99.90;;;;;;5095765;28;20035;-93
2024/02/16 05:23:55;;;;;;;7.18;1.00;;;9.90;99.90;;;;;;5097061;28;20019;-94
2024/02/16 05:26:20;;;;;;;4.00;1.25;;;9.80;99.90;;;;;;5096258;28;20027;-93
2024/02/16 05:28:47;;;;;;;6.78;0.90;;;9.80;99.90;;;;;;5092907;28;20450;-94
2024/02/16 05:31:18;;;;;;;5.57;0.93;;;9.80;99.90;;;;;;5093552;28;20044;-95
2024/02/16 05:33:49;;;;;;;2.58;0.57;;;9.80;99.90;;;;;;5095126;28;20081;-94
2024/02/16 05:36:24;;;;;;;;;;;9.70;99.90;;;;;;5096621;28;20024;-93
2024/02/16 05:38:50;;;;;;;8.20;1.10;;;9.70;99.90;;;;;;5095840;28;20302;-93
2024/02/16 05:41:17;;;;;;;3.97;0.60;;;9.60;99.90;;;;;;5097189;28;20038;-93
2024/02/16 05:43:44;;;;;;;6.00;0.95;;;9.60;99.90;;;;;;5097928;28;20099;-93
2024/02/16 05:46:14;;;;;;;5.32;1.65;;;9.60;99.90;;;;;;5112876;28;20031;-91
2024/02/16 05:48:40;;;;;;;6.47;0.93;;;9.60;99.90;;;;;;5088659;28;20032;-92
2024/02/16 05:51:06;;;;;;;7.75;1.00;;;9.60;99.90;;;;;;5095108;28;20032;-92
2024/02/16 05:53:33;;;;;;;4.25;0.95;;;9.60;99.90;;;;;;5095716;28;20016;-92
2024/02/16 05:55:59;;;;;;;1.83;1.00;;;9.60;99.90;;;;;;5113833;28;20024;-93
2024/02/16 05:58:25;;;;;;;4.07;1.52;;;9.60;99.90;;;;;;5107821;28;20026;-93
2024/02/16 06:00:51;;;;;;;4.80;1.35;;;9.50;99.90;;;;;;5117485;28;20048;-92
2024/02/16 06:03:17;;;;;;;5.05;1.45;;;9.50;99.90;;;;;;5114351;28;20016;-92
2024/02/16 06:05:45;;;;;;;4.45;1.95;;;9.40;99.90;;;;;;5108536;28;20026;-92
2024/02/16 06:08:12;;;;;;;8.60;2.45;;;9.50;99.90;;;;;;5116019;28;20031;-92
2024/02/16 06:10:38;;;;;;;7.60;1.83;;;9.50;99.90;;;;;;5113801;28;20084;-94
2024/02/16 06:13:04;;;;;;;5.72;1.48;;;9.40;99.90;;;;;;5081338;28;20020;-94
2024/02/16 06:15:30;;;;;;;4.53;1.80;;;9.40;99.90;;;;;;5094553;28;20542;-93
2024/02/16 06:17:56;;;;;;;7.35;2.05;;;9.40;99.90;;;;;;5083240;28;20032;-93
2024/02/16 06:20:22;;;;;;;9.25;2.20;;;9.40;99.90;;;;;;5084522;28;20032;-92
2024/02/16 06:22:48;;;;;;;5.63;1.80;;;9.40;99.90;;;;;;5093002;28;20111;-93
2024/02/16 06:25:15;;;;;;;8.88;2.60;;;9.40;99.90;;;;;;5093654;28;20101;-93
2024/02/16 06:27:41;;;;;;;3.10;1.63;;;9.40;99.90;;;;;;5091919;28;20051;-94
2024/02/16 06:30:12;;;;;;;10.40;2.15;;;9.30;99.90;;;;;;5096384;28;20023;-92
2024/02/16 06:32:38;;;;;;;6.97;1.52;;;9.30;99.90;;;;;;5114827;28;20122;-93
2024/02/16 06:35:04;;;;;;;8.32;1.75;;;9.30;99.90;;;;;;5100316;28;20093;-95
2024/02/16 06:37:31;;;;;;;14.60;2.00;;;9.30;99.90;;;;;;5098163;28;20024;-93
2024/02/16 06:39:57;;;;;;;7.55;1.80;;;9.20;99.90;;;;;;5097040;28;20048;-94
2024/02/16 06:42:23;;;;;;;8.75;1.50;;;9.20;99.90;;;;;;5096911;28;20508;-93
2024/02/16 06:44:49;;;;;;;5.95;1.23;;;9.20;99.90;;;;;;5097236;28;20027;-93
2024/02/16 06:47:15;;;;;;;6.75;1.55;;;9.20;99.90;;;;;;5099102;28;20473;-93
2024/02/16 06:49:41;;;;;;;5.10;1.40;;;9.20;99.90;;;;;;5109814;28;20062;-93
2024/02/16 06:52:09;;;;;;;10.27;1.88;;;9.10;99.90;;;;;;5100852;28;20049;-93
2024/02/16 06:54:35;;;;;;;8.38;1.70;;;9.10;99.90;;;;;;5101265;28;20030;-94
2024/02/16 06:57:01;;;;;;;9.10;1.42;;;9.10;99.90;;;;;;5099605;28;20091;-93
2024/02/16 06:59:27;;;;;;;7.15;1.40;;;9.10;99.90;;;;;;5096082;28;20058;-93
2024/02/16 07:01:53;;;;;;;11.48;1.90;;;9.10;99.90;;;;;;5100411;28;20469;-93
2024/02/16 07:04:19;;;;;;;11.60;1.70;;;9.10;99.90;;;;;;5116107;28;20051;-93
2024/02/16 07:06:44;;;;;;;8.02;1.70;;;9.00;99.90;;;;;;5099970;28;20028;-93
2024/02/16 07:09:11;;;;;;;13.93;2.00;;;9.00;99.90;;;;;;5095625;28;20401;-93
2024/02/16 07:11:37;;;;;;;13.20;1.92;;;9.00;99.90;;;;;;5093445;28;20027;-94
2024/02/16 07:14:03;;;;;;;12.75;2.03;;;8.90;99.90;;;;;;5092356;28;20058;-92
2024/02/16 07:16:30;;;;;;;10.23;1.70;;;8.90;99.90;;;;;;5098717;28;20027;-93
2024/02/16 07:18:56;;;;;;;7.85;1.67;;;8.90;99.90;;;;;;5101138;28;20028;-93
2024/02/16 07:21:23;;;;;;;6.15;1.52;;;8.80;99.90;;;;;;5100011;28;20369;-93
2024/02/16 07:23:48;;;;;;;11.45;2.67;;;8.80;99.90;;;;;;5098297;28;20020;-93
2024/02/16 07:26:14;;;;;;;8.43;2.40;;;8.80;99.90;;;;;;5100289;28;20442;-93
2024/02/16 07:28:40;;;;;;;9.10;1.80;;;8.70;99.90;;;;;;5100097;28;20028;-93
2024/02/16 07:31:06;;;;;;;7.85;2.40;;;8.70;99.90;;;;;;5103103;28;20020;-93
2024/02/16 07:33:31;;;;;;;5.93;2.00;;;8.60;99.90;;;;;;5096227;28;21470;-92
2024/02/16 07:35:57;;;;;;;9.27;2.50;;;8.60;99.90;;;;;;5114017;28;20024;-92
2024/02/16 07:38:23;;;;;;;9.25;2.55;;;8.60;99.90;;;;;;5098390;28;20077;-92
2024/02/16 07:40:50;;;;;;;9.70;2.60;;;8.50;99.90;;;;;;5102934;28;20073;-94
2024/02/16 07:43:17;;;;;;;9.70;2.13;;;8.50;99.90;;;;;;5098195;28;20481;-92
2024/02/16 07:45:43;;;;;;;11.02;2.08;;;8.50;99.90;;;;;;5099914;28;20509;-93
2024/02/16 07:48:08;;;;;;;10.25;2.97;;;8.50;99.90;;;;;;5097037;28;20032;-93
2024/02/16 07:50:34;;;;;;;12.00;3.13;;;8.50;99.90;;;;;;5096805;28;20036;-93
2024/02/16 07:53:00;;;;;;;13.25;2.55;;;8.40;99.90;;;;;;5096299;28;20024;-91
2024/02/16 07:55:26;;;;;;;13.00;2.30;;;8.40;99.90;;;;;;5096999;28;20477;-93
2024/02/16 07:57:52;;;;;;;8.82;2.40;;;8.40;99.90;;;;;;5096708;28;20041;-93
2024/02/16 08:00:18;;;;;;;13.27;2.60;;;8.40;99.90;;;;;;5092216;28;20420;-92
2024/02/16 08:02:44;;;;;;;20.90;2.50;;;8.40;99.90;;;;;;5097519;28;20030;-92
2024/02/16 08:05:14;;;;;;;11.73;2.90;;;8.50;99.90;;;;;;5098390;28;20124;-93
2024/02/16 08:07:43;;;;;;;8.63;1.92;;;8.50;99.90;;;;;;5111519;28;20020;-91
2024/02/16 08:10:09;;;;;;;14.70;2.40;;;8.50;99.90;;;;;;5113171;28;20047;-93
2024/02/16 08:12:35;;;;;;;9.60;2.47;;;8.50;99.90;;;;;;5106741;28;20031;-93
2024/02/16 08:15:08;;;;;;;12.90;2.75;;;8.50;99.90;;;;;;5106446;28;20024;-93
2024/02/16 08:17:35;;;;;;;11.15;2.50;;;8.50;99.90;;;;;;5101333;28;20032;-92
2024/02/16 08:20:01;;;;;;;8.68;3.05;;;8.50;99.90;;;;;;5104151;28;20051;-93
2024/02/16 08:22:26;;;;;;;8.90;2.28;;;8.50;99.90;;;;;;5096864;28;20028;-93
2024/02/16 08:24:52;;;;;;;11.20;2.40;;;8.60;99.90;;;;;;5095521;28;20384;-95
2024/02/16 08:27:18;;;;;;;8.80;2.10;;;8.60;99.90;;;;;;5095096;28;20031;-93
2024/02/16 08:29:44;;;;;;;9.23;2.67;;;8.70;99.90;;;;;;5094967;28;20030;-93
2024/02/16 08:32:10;;;;;;;11.52;2.60;;;8.70;99.90;;;;;;5095631;28;20056;-92
2024/02/16 08:34:36;;;;;;;11.88;2.45;;;8.80;99.90;;;;;;5094533;28;20044;-92
2024/02/16 08:37:04;;;;;;;18.15;3.28;;;8.80;99.90;;;;;;5094113;28;20466;-93
2024/02/16 08:39:30;;;;;;;12.55;3.63;;;9.00;99.90;;;;;;5094044;28;20031;-92
2024/02/16 08:41:58;;;;;;;9.88;2.58;;;9.00;99.90;;;;;;5085334;28;20040;-93
2024/02/16 08:44:25;;;;;;;10.70;2.70;;;9.10;99.90;;;;;;5084904;28;20551;-93
2024/02/16 08:46:50;;;;;;;7.95;3.08;;;9.20;99.90;;;;;;5087149;28;20118;-92
2024/02/16 08:49:16;;;;;;;15.65;3.40;;;9.30;99.90;;;;;;5084222;28;20051;-93
2024/02/16 08:51:43;;;;;;;16.67;4.30;;;9.30;99.90;;;;;;5085994;28;20495;-92
2024/02/16 08:54:12;;;;;;;11.35;3.35;;;9.40;99.90;;;;;;5083377;28;20025;-92
2024/02/16 08:56:39;;;;;;;14.63;4.30;;;9.50;99.90;;;;;;5080555;28;20107;-92
2024/02/16 08:59:05;;;;;;;15.32;4.78;;;9.50;99.90;;;;;;5084161;28;20036;-93
2024/02/16 09:01:35;;;;;;;12.40;4.80;;;9.60;99.90;;;;;;5077973;28;20045;-94
2024/02/16 09:04:01;;;;;;;13.60;5.10;;;9.70;99.90;;;;;;5072955;28;20067;-92
2024/02/16 09:06:28;;;;;;;11.05;5.80;;;9.70;99.90;;;;;;5076938;28;20032;-93
2024/02/16 09:08:54;;;;;;;13.77;6.35;;;9.80;99.90;;;;;;5074518;28;20226;-93
2024/02/16 09:11:20;;;;;;;16.48;6.65;;;9.80;99.90;;;;;;5082504;28;20119;-95
2024/02/16 09:13:47;;;;;;;19.67;8.18;;;9.80;99.90;;;;;;5068468;28;20032;-93
2024/02/16 09:16:12;;;;;;;16.10;6.70;;;9.80;99.90;;;;;;5071512;28;20044;-91
2024/02/16 09:18:38;;;;;;;17.58;6.75;;;9.70;99.90;;;;;;5070605;28;20025;-93
2024/02/16 09:21:05;;;;;;;11.80;6.60;;;9.70;99.90;;;;;;5084785;28;20040;-92
2024/02/16 09:23:35;;;;;;;14.75;7.00;;;9.70;99.90;;;;;;5095217;28;20030;-93
2024/02/16 09:26:01;;;;;;;17.23;7.20;;;9.70;99.90;;;;;;5095522;28;20024;-92
2024/02/16 09:28:28;;;;;;;19.80;7.15;;;9.70;99.90;;;;;;5086001;28;20020;-92
2024/02/16 09:30:58;;;;;;;32.30;6.70;;;9.70;99.90;;;;;;5090105;28;20028;-93
2024/02/16 09:33:26;;;;;;;14.80;5.75;;;9.70;99.90;;;;;;5088119;28;20035;-93
2024/02/16 09:35:52;;;;;;;10.52;4.70;;;9.70;99.90;;;;;;5083515;28;20017;-93
2024/02/16 09:38:18;;;;;;;11.98;4.70;;;9.70;99.90;;;;;;5083920;28;20465;-92
2024/02/16 09:40:44;;;;;;;14.25;5.60;;;9.70;99.90;;;;;;5078556;28;20039;-92
2024/02/16 09:43:10;;;;;;;10.40;4.95;;;9.80;99.90;;;;;;5100290;28;20058;-93
2024/02/16 09:45:36;;;;;;;11.80;5.07;;;9.90;99.90;;;;;;5103915;28;20024;-93
2024/02/16 09:48:07;;;;;;;13.50;3.72;;;10.00;99.90;;;;;;5100986;28;20020;-94
2024/02/16 09:50:34;;;;;;;8.40;3.97;;;10.00;99.90;;;;;;5095372;28;20060;-95
2024/02/16 09:53:04;;;;;;;10.60;3.13;;;10.00;99.90;;;;;;5097484;28;20028;-94
2024/02/16 09:55:33;;;;;;;5.65;3.30;;;10.20;99.90;;;;;;5101165;28;20027;-94
2024/02/16 09:58:00;;;;;;;6.40;2.95;;;10.30;99.90;;;;;;5101985;28;20020;-94
2024/02/16 10:00:25;;;;;;;7.35;2.88;;;10.60;99.90;;;;;;5103293;28;20105;-95
2024/02/16 10:02:51;;;;;;;8.70;3.58;;;10.70;99.90;;;;;;5102468;28;20016;-94
2024/02/16 10:08:56;;;;;;;6.53;2.78;;;11.00;99.90;;;;;;5096621;28;20292;-94
2024/02/16 10:11:24;;;;;;;7.43;2.50;;;11.30;99.90;;;;;;5093198;28;20034;-93
2024/02/16 10:13:59;;;;;;;7.43;2.00;;;11.40;99.90;;;;;;5093365;28;20080;-95
2024/02/16 10:16:29;;;;;;;9.48;2.28;;;11.50;99.90;;;;;;5093113;28;20020;-93
2024/02/16 10:18:57;;;;;;;6.43;2.20;;;11.50;99.90;;;;;;5089346;28;20035;-93
2024/02/16 10:21:29;;;;;;;9.82;3.13;;;11.60;99.90;;;;;;5098575;28;20322;-95
2024/02/16 10:24:05;;;;;;;9.43;2.33;;;11.70;99.90;;;;;;5094390;28;20024;-94
2024/02/16 10:26:31;;;;;;;6.15;1.85;;;11.70;99.90;;;;;;5088818;28;20028;-93
2024/02/16 10:28:58;;;;;;;5.40;1.73;;;11.90;99.90;;;;;;5092363;28;20027;-92
2024/02/16 10:31:28;;;;;;;7.30;2.15;;;12.10;99.90;;;;;;5092672;28;20055;-93
2024/02/16 10:34:09;;;;;;;;;;;12.20;99.90;;;;;;5092398;28;20019;-93
2024/02/16 10:36:36;;;;;;;4.88;2.22;;;12.20;99.90;;;;;;5090746;28;19952;-93
2024/02/16 10:39:07;;;;;;;7.80;2.30;;;12.20;99.90;;;;;;5091720;28;20020;-92
2024/02/16 10:41:39;;;;;;;2.92;1.40;;;12.30;99.90;;;;;;5087343;28;20048;-93
2024/02/16 10:44:06;;;;;;;13.68;2.53;;;12.60;99.90;;;;;;5072957;28;20104;-93
2024/02/16 10:46:34;;;;;;;7.07;2.15;;;12.80;99.90;;;;;;5071984;28;20020;-94
2024/02/16 10:49:06;;;;;;;4.53;1.52;;;12.90;99.90;;;;;;5071121;28;20103;-92
2024/02/16 10:51:48;;;;;;;6.65;1.80;;;13.10;99.90;;;;;;5072888;28;20505;-92
2024/02/16 10:54:19;;;;;;;7.47;1.60;;;13.20;99.90;;;;;;5064384;28;20021;-93
2024/02/16 10:56:45;;;;;;;13.73;1.90;;;13.20;99.90;;;;;;5073340;28;20158;-93
2024/02/16 10:59:11;;;;;;;6.55;2.70;;;13.20;99.90;;;;;;5072110;28;20542;-94
2024/02/16 11:01:42;;;;;;;3.33;2.30;;;13.10;99.90;;;;;;5070678;28;20108;-92
2024/02/16 11:04:08;;;;;;;;;;;13.00;99.90;;;;;;5072772;28;20009;-94
2024/02/16 11:06:48;;;;;;;4.05;1.83;;;13.10;99.90;;;;;;5093184;28;19916;-94
2024/02/16 11:09:27;;;;;;;5.72;1.67;;;13.20;99.90;;;;;;5071548;28;20465;-94
2024/02/16 11:11:54;;;;;;;7.57;2.97;;;13.20;99.90;;;;;;5085653;28;20393;-93
2024/02/16 11:14:23;;;;;;;5.15;1.75;;;13.20;99.90;;;;;;5071429;28;20098;-92
2024/02/16 11:16:49;;;;;;;7.57;2.40;;;13.10;99.90;;;;;;5068574;28;20068;-94
2024/02/16 11:19:16;;;;;;;5.68;2.40;;;13.20;99.90;;;;;;5079893;28;20028;-94
2024/02/16 11:22:07;;;;;;;6.57;2.70;;;13.20;99.90;;;;;;5083515;28;20053;-93
2024/02/16 11:24:33;;;;;;;7.78;4.25;;;13.10;99.90;;;;;;5069535;28;20031;-94
2024/02/16 11:27:02;;;;;;;7.82;4.15;;;13.00;99.90;;;;;;5074992;28;20033;-94
2024/02/16 11:29:33;;;;;;;10.10;4.63;;;12.80;99.90;;;;;;5075614;28;20025;-94
2024/02/16 11:31:59;;;;;;;8.23;4.50;;;12.80;99.90;;;;;;5076727;28;20021;-95
2024/02/16 11:34:25;;;;;;;6.10;3.70;;;13.00;99.90;;;;;;5078657;28;20105;-93
2024/02/16 11:36:59;;;;;;;6.10;3.00;;;13.30;99.90;;;;;;5078264;28;20477;-93
2024/02/16 11:39:25;;;;;;;4.40;2.47;;;13.60;99.90;;;;;;5081287;28;20032;-93
2024/02/16 11:42:05;;;;;;;5.50;1.60;;;14.00;99.90;;;;;;5084460;28;20139;-95
2024/02/16 11:44:42;;;;;;;4.60;1.90;;;14.20;99.90;;;;;;5116886;28;20422;-94
2024/02/16 11:47:17;;;;;;;4.45;1.40;;;14.40;99.90;;;;;;5121132;28;20104;-95
2024/02/16 11:49:42;;;;;;;2.53;1.42;;;14.70;99.90;;;;;;5128952;28;20028;-93
2024/02/16 11:52:11;;;;;;;5.47;1.77;;;14.90;99.90;;;;;;5133795;28;20095;-95
2024/02/16 11:54:37;;;;;;;4.70;1.42;;;15.10;99.90;;;;;;5116994;28;20033;-94
2024/02/16 11:57:04;;;;;;;2.85;1.23;;;15.30;99.90;;;;;;5105660;28;20047;-94
2024/02/16 11:59:31;;;;;;;6.72;1.90;;;15.30;99.90;;;;;;5095561;28;20024;-94
2024/02/16 12:01:58;;;;;;;4.95;1.92;;;15.40;99.90;;;;;;5095598;28;20038;-92
2024/02/16 12:04:25;;;;;;;6.05;2.20;;;15.60;99.90;;;;;;5096089;28;20013;-93
2024/02/16 12:06:56;;;;;;;8.13;2.40;;;15.90;99.90;;;;;;5096794;28;20016;-92
2024/02/16 12:09:24;;;;;;;4.88;1.80;;;16.00;99.90;;;;;;5093855;28;20024;-95
2024/02/16 12:11:50;;;;;;;3.08;1.75;;;16.00;99.90;;;;;;5095248;28;20024;-96
2024/02/16 12:14:21;;;;;;;3.03;1.90;;;16.10;99.90;;;;;;5095242;28;20420;-95
2024/02/16 12:16:51;;;;;;;2.03;1.83;;;16.30;99.90;;;;;;5095408;28;20031;-93
2024/02/16 12:19:18;;;;;;;2.85;1.73;;;16.50;99.90;;;;;;5095091;28;20013;-93
2024/02/16 12:21:44;;;;;;;5.18;2.30;;;16.70;99.90;;;;;;5095189;28;20036;-91
2024/02/16 12:24:10;;;;;;;2.90;2.05;;;16.90;99.90;;;;;;5095334;28;20023;-94
2024/02/16 12:26:37;;;;;;;4.95;1.88;;;17.20;99.90;;;;;;5092271;28;20058;-94
2024/02/16 12:29:03;;;;;;;2.70;1.95;;;17.10;99.90;;;;;;5096841;28;20496;-94
2024/02/16 12:31:30;;;;;;;2.95;2.10;;;16.90;99.90;;;;;;5095254;28;20024;-94
2024/02/16 12:33:55;;;;;;;2.35;1.75;;;16.80;99.90;;;;;;5094944;28;20107;-93
2024/02/16 12:36:22;;;;;;;2.92;1.90;;;16.60;99.90;;;;;;5095051;28;20508;-94
2024/02/16 12:38:50;;;;;;;2.65;2.00;;;16.60;99.90;;;;;;5091032;28;20045;-93
2024/02/16 12:41:16;;;;;;;3.53;1.80;;;16.80;99.90;;;;;;5088522;28;20041;-93
2024/02/16 12:43:41;;;;;;;4.70;2.35;;;16.90;99.90;;;;;;5118797;27;20030;-93
2024/02/16 12:46:07;;;;;;;3.38;2.22;;;16.90;99.90;;;;;;5118527;27;20027;-92
2024/02/16 12:48:33;;;;;;;2.85;2.33;;;16.60;99.90;;;;;;5101173;28;20035;-93
2024/02/16 12:50:59;;;;;;;1.75;1.65;;;15.90;99.90;;;;;;5099593;28;20043;-93